Time;durP1;ratioP1;P1;durP2;ratioP2;P2;SDS_P1;SDS_P2;PMS_P1;PMS_P2;Temp;Humidity;BMP_temperature;BMP_pressure;BME280_temperature;BME280_humidity;BME280_pressure;Samples;Min_cycle;Max_cycle;Signal;HPM_P1;HPM_P2
2022/07/28 00:00:27;;;;;;;5.57;2.10;;;14.20;99.90;;;;;;5133350;28;20061;-70
2022/07/28 00:02:53;;;;;;;4.47;2.23;;;14.20;99.90;;;;;;5133267;28;20139;-70
2022/07/28 00:05:19;;;;;;;7.50;2.20;;;14.20;99.90;;;;;;5133541;28;20051;-70
2022/07/28 00:07:44;;;;;;;6.23;2.40;;;14.10;99.90;;;;;;5133620;28;20101;-70
2022/07/28 00:10:11;;;;;;;4.10;1.97;;;14.10;99.90;;;;;;5133241;28;20047;-70
2022/07/28 00:12:37;;;;;;;6.83;2.20;;;14.10;99.90;;;;;;5133634;28;20159;-70
2022/07/28 00:15:04;;;;;;;6.03;2.67;;;14.10;99.90;;;;;;5133258;28;20398;-70
2022/07/28 00:17:29;;;;;;;5.10;2.50;;;14.10;99.90;;;;;;5133452;28;20043;-70
2022/07/28 00:19:56;;;;;;;6.80;2.80;;;;;;;;;;5133974;27;20364;-71
2022/07/28 00:22:22;;;;;;;5.97;2.40;;;;;;;;;;5137450;27;20050;-70
2022/07/28 00:24:48;;;;;;;7.87;2.77;;;;;;;;;;5137327;27;20273;-70
2022/07/28 00:27:15;;;;;;;5.93;2.57;;;;;;;;;;5136996;27;20363;-70
2022/07/28 00:29:41;;;;;;;6.07;2.10;;;;;;;;;;5137185;27;20681;-70
2022/07/28 00:32:07;;;;;;;7.07;2.60;;;;;;;;;;5136898;27;20284;-70
2022/07/28 00:34:34;;;;;;;7.03;2.53;;;;;;;;;;5137081;27;20305;-70
2022/07/28 00:37:00;;;;;;;5.03;2.30;;;;;;;;;;5136754;27;20688;-70
2022/07/28 00:39:25;;;;;;;6.90;2.83;;;14.00;99.90;;;;;;5137207;27;20273;-70
2022/07/28 00:41:51;;;;;;;6.03;2.53;;;14.00;99.90;;;;;;5136839;27;20782;-74
2022/07/28 00:44:17;;;;;;;5.73;2.10;;;14.00;99.90;;;;;;5118825;27;20107;-70
2022/07/28 00:46:43;;;;;;;5.90;2.70;;;14.00;99.90;;;;;;5136839;27;20447;-70
2022/07/28 00:49:09;;;;;;;5.87;2.73;;;13.90;99.90;;;;;;5136491;27;20046;-70
2022/07/28 00:51:35;;;;;;;6.17;2.77;;;13.90;99.90;;;;;;5136653;27;20764;-70
2022/07/28 00:54:02;;;;;;;8.67;2.57;;;13.90;99.90;;;;;;5136389;27;20297;-70
2022/07/28 00:56:27;;;;;;;5.57;2.60;;;14.00;99.90;;;;;;5136406;27;20474;-70
2022/07/28 00:58:53;;;;;;;6.60;2.63;;;13.90;99.90;;;;;;5136280;27;20322;-74
2022/07/28 01:01:19;;;;;;;4.70;2.60;;;14.00;99.90;;;;;;5136754;27;20050;-70
2022/07/28 01:03:58;;;;;;;6.73;2.87;;;13.90;99.90;;;;;;5136582;27;20051;-70
2022/07/28 01:07:01;;;;;;;6.77;2.43;;;13.90;99.90;;;;;;5136726;27;20277;-70
2022/07/28 01:09:41;;;;;;;5.97;2.80;;;13.90;99.90;;;;;;5136181;27;20764;-70
2022/07/28 01:12:31;;;;;;;6.23;2.63;;;13.90;99.90;;;;;;5136181;27;20321;-70
2022/07/28 01:15:27;;;;;;;6.87;2.80;;;13.90;99.90;;;;;;5134941;27;20634;-70
2022/07/28 01:18:02;;;;;;;7.37;2.60;;;13.90;99.90;;;;;;5136103;27;20843;-70
2022/07/28 01:20:51;;;;;;;5.97;2.30;;;13.90;99.90;;;;;;5136307;27;20289;-70
2022/07/28 01:23:32;;;;;;;4.63;2.37;;;13.90;99.90;;;;;;5121184;27;20871;-70
2022/07/28 01:26:22;;;;;;;5.70;2.50;;;14.00;99.90;;;;;;5135870;27;20285;-71
2022/07/28 01:29:00;;;;;;;6.20;2.60;;;13.90;99.90;;;;;;5117775;27;20284;-70
2022/07/28 01:31:29;;;;;;;5.07;2.30;;;13.80;99.90;;;;;;5136062;27;20276;-70
2022/07/28 01:34:04;;;;;;;4.83;1.97;;;13.80;99.90;;;;;;5135775;27;20352;-70
2022/07/28 01:36:41;;;;;;;4.20;2.10;;;13.80;99.90;;;;;;5136204;27;20409;-70
2022/07/28 01:39:08;;;;;;;5.13;1.93;;;13.80;99.90;;;;;;5135742;27;20390;-70
2022/07/28 01:41:37;;;;;;;5.40;2.23;;;13.80;99.90;;;;;;5135881;27;20276;-70
2022/07/28 01:44:10;;;;;;;3.87;1.83;;;13.80;99.90;;;;;;5135536;27;20276;-70
2022/07/28 01:46:37;;;;;;;5.00;2.20;;;13.70;99.90;;;;;;5135774;27;20364;-70
2022/07/28 01:49:05;;;;;;;7.53;2.10;;;13.70;99.90;;;;;;5135505;27;20273;-70
2022/07/28 01:51:33;;;;;;;6.20;2.13;;;13.70;99.90;;;;;;5135641;27;20273;-70
2022/07/28 01:54:00;;;;;;;4.87;1.90;;;13.70;99.90;;;;;;5135477;27;20311;-70
2022/07/28 01:56:29;;;;;;;5.13;2.00;;;13.80;99.90;;;;;;5135619;27;20305;-70
2022/07/28 01:58:58;;;;;;;5.07;2.33;;;13.80;99.90;;;;;;5135501;27;20295;-69
2022/07/28 02:01:26;;;;;;;4.43;2.23;;;13.80;99.90;;;;;;5135187;27;20281;-69
2022/07/28 02:03:53;;;;;;;6.37;2.40;;;13.80;99.90;;;;;;5135414;27;20273;-69
2022/07/28 02:06:21;;;;;;;4.03;2.00;;;13.80;99.90;;;;;;5134937;27;20417;-70
2022/07/28 02:08:49;;;;;;;6.97;2.67;;;13.80;99.90;;;;;;5135319;27;20281;-70
2022/07/28 02:14:00;;;;;;;4.37;2.00;;;13.70;99.90;;;;;;5135128;27;20296;-69
2022/07/28 02:16:28;;;;;;;4.40;2.40;;;13.70;99.90;;;;;;5134813;27;20397;-70
2022/07/28 02:18:55;;;;;;;7.53;2.27;;;13.70;99.90;;;;;;5116979;27;20277;-70
2022/07/28 02:21:24;;;;;;;5.37;2.30;;;13.70;99.90;;;;;;5134921;27;20273;-70
2022/07/28 02:23:51;;;;;;;6.67;1.90;;;13.60;99.90;;;;;;5116904;27;20329;-69
2022/07/28 02:26:24;;;;;;;4.37;1.90;;;13.60;99.90;;;;;;5134655;27;20285;-70
2022/07/28 02:28:53;;;;;;;7.53;2.20;;;13.50;99.90;;;;;;5135111;27;20265;-70
2022/07/28 02:31:25;;;;;;;5.37;2.03;;;13.50;99.90;;;;;;5134593;27;20354;-70
2022/07/28 02:33:53;;;;;;;5.57;2.30;;;13.40;99.90;;;;;;5134855;27;20643;-69
2022/07/28 02:36:27;;;;;;;4.37;1.97;;;13.50;99.90;;;;;;5134522;27;20288;-70
2022/07/28 02:38:58;;;;;;;3.33;1.80;;;13.40;99.90;;;;;;5134467;27;20740;-70
2022/07/28 02:41:27;;;;;;;5.43;2.30;;;13.40;99.90;;;;;;5134523;27;20272;-70
2022/07/28 02:43:59;;;;;;;7.20;2.30;;;13.40;99.90;;;;;;5133632;27;20315;-70
2022/07/28 02:46:34;;;;;;;3.90;2.10;;;13.40;99.90;;;;;;5134748;27;20309;-69
2022/07/28 02:49:05;;;;;;;3.97;1.90;;;13.40;99.90;;;;;;5134662;27;20355;-70
2022/07/28 02:51:33;;;;;;;4.87;2.20;;;13.40;99.90;;;;;;5134291;27;20047;-70
2022/07/28 02:53:59;;;;;;;4.57;2.10;;;13.40;99.90;;;;;;5116377;27;20645;-70
2022/07/28 02:56:27;;;;;;;3.53;1.70;;;13.40;99.90;;;;;;5134136;27;20272;-70
2022/07/28 02:58:54;;;;;;;4.53;2.10;;;13.40;99.90;;;;;;5134110;27;20780;-70
2022/07/28 03:01:21;;;;;;;4.00;2.10;;;13.30;99.90;;;;;;5134095;27;20285;-70
2022/07/28 03:03:48;;;;;;;4.77;1.90;;;;;;;;;;5134506;27;20273;-70
2022/07/28 03:06:18;;;;;;;4.57;2.20;;;13.30;99.90;;;;;;5115724;27;20281;-70
2022/07/28 03:08:44;;;;;;;4.13;2.10;;;13.20;99.90;;;;;;5134366;27;20742;-70
2022/07/28 03:11:12;;;;;;;3.87;2.03;;;13.20;99.90;;;;;;5133888;27;20284;-73
2022/07/28 03:13:38;;;;;;;4.13;1.90;;;13.20;99.90;;;;;;5134103;27;20043;-70
2022/07/28 03:16:04;;;;;;;4.13;2.03;;;13.20;99.90;;;;;;5134160;27;20272;-70
2022/07/28 03:18:30;;;;;;;6.23;1.73;;;13.20;99.90;;;;;;5133729;27;20278;-70
2022/07/28 03:20:56;;;;;;;7.53;2.50;;;13.20;99.90;;;;;;5134082;27;20606;-70
2022/07/28 03:23:27;;;;;;;4.20;2.00;;;13.20;99.90;;;;;;5133839;27;20043;-70
2022/07/28 03:25:56;;;;;;;5.27;2.00;;;13.10;99.90;;;;;;5134026;28;20276;-69
2022/07/28 03:28:23;;;;;;;4.30;1.90;;;13.10;99.90;;;;;;5133717;27;20707;-70
2022/07/28 03:31:08;;;;;;;4.23;1.93;;;13.10;99.90;;;;;;5133911;27;20296;-70
2022/07/28 03:33:34;;;;;;;4.50;2.47;;;13.00;99.90;;;;;;5133362;28;20846;-70
2022/07/28 03:36:02;;;;;;;4.63;2.00;;;;;;;;;;5133848;28;20325;-69
2022/07/28 03:38:34;;;;;;;4.63;2.13;;;13.00;99.90;;;;;;5133583;28;20047;-69
2022/07/28 03:41:01;;;;;;;4.37;2.10;;;13.00;99.90;;;;;;5133909;28;20298;-69
2022/07/28 03:43:27;;;;;;;6.23;1.80;;;12.90;99.90;;;;;;5133492;28;20284;-69
2022/07/28 03:45:53;;;;;;;6.27;2.20;;;12.90;99.90;;;;;;5133982;28;20687;-69
2022/07/28 03:48:23;;;;;;;4.37;1.77;;;13.00;99.90;;;;;;5133469;28;20371;-70
2022/07/28 03:50:49;;;;;;;4.43;2.03;;;13.00;99.90;;;;;;5133643;28;20513;-70
2022/07/28 03:53:20;;;;;;;5.33;1.97;;;13.00;99.90;;;;;;5133470;28;20293;-73
2022/07/28 03:55:49;;;;;;;4.73;1.93;;;13.00;99.90;;;;;;5136114;27;20050;-70
2022/07/28 03:58:17;;;;;;;5.40;2.00;;;13.00;99.90;;;;;;5137806;27;20288;-73
2022/07/28 04:00:43;;;;;;;6.17;2.40;;;13.00;99.90;;;;;;5137806;27;20288;-71
2022/07/28 04:03:08;;;;;;;4.97;2.43;;;13.00;99.90;;;;;;5137765;27;20277;-70
2022/07/28 04:05:34;;;;;;;5.17;2.00;;;13.10;99.90;;;;;;5137363;27;20092;-70
2022/07/28 04:07:59;;;;;;;4.40;1.90;;;13.10;99.90;;;;;;5137623;27;20043;-70
2022/07/28 04:10:25;;;;;;;5.30;2.20;;;13.10;99.90;;;;;;5137464;27;20047;-70
2022/07/28 04:12:54;;;;;;;4.90;2.20;;;13.10;99.90;;;;;;5137536;27;20494;-70
2022/07/28 04:15:20;;;;;;;4.97;2.00;;;13.10;99.90;;;;;;5137180;27;20042;-70
2022/07/28 04:17:48;;;;;;;4.53;1.90;;;13.10;99.90;;;;;;5119494;27;20293;-70
2022/07/28 04:20:15;;;;;;;5.57;2.90;;;13.10;99.90;;;;;;5137435;27;20047;-70
2022/07/28 04:22:41;;;;;;;6.90;1.97;;;13.10;99.90;;;;;;5137121;27;20292;-70
2022/07/28 04:25:08;;;;;;;3.73;1.70;;;;;;;;;;5137436;27;20284;-70
2022/07/28 04:27:35;;;;;;;4.97;2.07;;;12.90;99.90;;;;;;5102027;27;20035;-70
2022/07/28 04:30:06;;;;;;;5.13;1.87;;;13.00;99.90;;;;;;5137259;27;20288;-70
2022/07/28 04:32:31;;;;;;;5.33;2.00;;;13.00;99.90;;;;;;5118910;27;20297;-70
2022/07/28 04:34:57;;;;;;;4.87;2.03;;;13.10;99.90;;;;;;5137493;27;20431;-70
2022/07/28 04:37:23;;;;;;;4.77;2.20;;;13.00;99.90;;;;;;5136924;27;20047;-70
2022/07/28 04:39:49;;;;;;;6.17;2.00;;;13.10;99.90;;;;;;5137092;27;20502;-70
2022/07/28 04:42:17;;;;;;;5.13;2.07;;;13.00;99.90;;;;;;5137049;27;20151;-70
2022/07/28 04:44:44;;;;;;;5.07;2.10;;;13.00;99.90;;;;;;5136409;27;20903;-70
2022/07/28 04:47:12;;;;;;;5.93;2.20;;;13.00;99.90;;;;;;5118790;27;20798;-70
2022/07/28 04:49:38;;;;;;;5.17;2.30;;;13.10;99.90;;;;;;5118448;27;20280;-70
2022/07/28 04:52:05;;;;;;;6.80;2.50;;;13.10;99.90;;;;;;5137005;27;20364;-70
2022/07/28 04:54:30;;;;;;;6.10;2.20;;;13.10;99.90;;;;;;5136517;27;20304;-70
2022/07/28 04:56:56;;;;;;;4.50;2.27;;;13.10;99.90;;;;;;5118228;27;20295;-69
2022/07/28 04:59:22;;;;;;;4.83;2.30;;;13.20;99.90;;;;;;5136781;27;20091;-69
2022/07/28 05:01:47;;;;;;;6.30;2.17;;;13.20;99.90;;;;;;5136581;27;20367;-70
2022/07/28 05:04:13;;;;;;;5.73;2.57;;;13.20;99.90;;;;;;5135631;27;20039;-69
2022/07/28 05:06:39;;;;;;;4.63;2.20;;;13.20;99.90;;;;;;5136090;27;20062;-70
2022/07/28 05:09:04;;;;;;;3.87;1.80;;;13.30;99.90;;;;;;5136167;27;20047;-69
2022/07/28 05:11:30;;;;;;;4.87;2.10;;;13.30;99.90;;;;;;5136235;27;20052;-70
2022/07/28 05:13:55;;;;;;;4.97;2.10;;;13.40;99.90;;;;;;5136343;27;20083;-69
2022/07/28 05:16:24;;;;;;;4.40;2.00;;;13.40;99.90;;;;;;5136786;27;20074;-69
2022/07/28 05:18:50;;;;;;;4.70;2.50;;;13.50;99.90;;;;;;5136378;27;20507;-69
2022/07/28 05:21:16;;;;;;;5.90;2.30;;;13.70;99.90;;;;;;5136598;27;20316;-69
2022/07/28 05:23:41;;;;;;;4.57;2.10;;;13.80;99.90;;;;;;5117872;27;20399;-70
2022/07/28 05:26:07;;;;;;;7.77;2.40;;;14.00;99.90;;;;;;5136247;27;20043;-69
2022/07/28 05:28:33;;;;;;;7.43;2.33;;;14.10;99.90;;;;;;5135918;27;20049;-70
2022/07/28 05:30:58;;;;;;;6.10;2.40;;;14.20;99.90;;;;;;5135806;27;20058;-69
2022/07/28 05:33:24;;;;;;;5.40;2.10;;;14.20;99.90;;;;;;5136090;27;20097;-69
2022/07/28 05:35:58;;;;;;;5.87;2.30;;;14.30;99.90;;;;;;5117504;27;20482;-70
2022/07/28 05:38:24;;;;;;;5.07;2.40;;;14.30;99.90;;;;;;5136128;27;20399;-70
2022/07/28 05:40:50;;;;;;;5.40;2.10;;;14.30;99.90;;;;;;5135340;27;20280;-70
2022/07/28 05:43:17;;;;;;;5.97;2.30;;;14.30;99.90;;;;;;5135994;27;20280;-69
2022/07/28 05:45:42;;;;;;;5.13;2.30;;;14.40;99.90;;;;;;5135588;27;20299;-70
2022/07/28 05:48:08;;;;;;;5.63;2.13;;;14.40;99.90;;;;;;5135711;27;20764;-70
2022/07/28 05:50:34;;;;;;;4.80;1.90;;;14.50;99.90;;;;;;5135503;27;20084;-70
2022/07/28 05:53:00;;;;;;;8.03;2.27;;;14.60;99.90;;;;;;5117538;27;20054;-70
2022/07/28 05:55:25;;;;;;;6.47;2.10;;;14.70;99.90;;;;;;5135698;27;20035;-69
2022/07/28 05:57:52;;;;;;;7.87;2.10;;;14.80;99.90;;;;;;5135313;27;20539;-69
2022/07/28 06:00:20;;;;;;;7.83;2.23;;;14.90;99.90;;;;;;5117657;27;20083;-70
2022/07/28 06:02:48;;;;;;;7.30;1.90;;;15.00;99.90;;;;;;5135226;27;20281;-70
2022/07/28 06:05:16;;;;;;;5.70;2.30;;;15.20;99.90;;;;;;5117356;27;20288;-71
2022/07/28 06:07:42;;;;;;;5.23;2.27;;;15.30;99.90;;;;;;5135035;27;20273;-71
2022/07/28 06:10:09;;;;;;;6.33;2.00;;;15.50;99.90;;;;;;5134993;27;20737;-71
2022/07/28 06:12:49;;;;;;;4.00;1.90;;;15.70;99.90;;;;;;5134942;27;20289;-71
2022/07/28 06:15:17;;;;;;;5.73;2.30;;;15.90;99.90;;;;;;5135199;27;20293;-71
2022/07/28 06:17:43;;;;;;;6.37;1.80;;;16.10;99.90;;;;;;5134156;27;20281;-71
2022/07/28 06:20:10;;;;;;;4.07;1.57;;;16.30;99.90;;;;;;5135271;27;20281;-71
2022/07/28 06:22:43;;;;;;;5.77;1.57;;;16.50;99.90;;;;;;5134693;27;20038;-71
2022/07/28 06:25:21;;;;;;;6.17;1.43;;;16.90;99.90;;;;;;5116598;27;20775;-70
2022/07/28 06:27:48;;;;;;;6.10;1.60;;;17.30;99.90;;;;;;5134792;27;20273;-71
2022/07/28 06:30:15;;;;;;;4.10;1.43;;;17.80;99.90;;;;;;5135030;27;20277;-70
2022/07/28 06:32:41;;;;;;;5.47;1.80;;;18.20;99.90;;;;;;5134574;27;20284;-71
2022/07/28 06:35:07;;;;;;;10.87;2.20;;;18.30;99.90;;;;;;5134179;27;20297;-71
2022/07/28 06:37:33;;;;;;;5.13;1.80;;;18.70;99.90;;;;;;5134858;27;20448;-71
2022/07/28 06:39:59;;;;;;;5.43;1.83;;;19.20;99.90;;;;;;5134566;27;20047;-71
2022/07/28 06:42:25;;;;;;;5.73;1.67;;;19.40;99.90;;;;;;5116760;27;20082;-70
2022/07/28 06:44:51;;;;;;;5.27;1.70;;;19.20;99.90;;;;;;5133460;27;20100;-71
2022/07/28 06:47:17;;;;;;;6.53;1.60;;;19.50;99.90;;;;;;5116337;27;20043;-71
2022/07/28 06:49:43;;;;;;;6.23;1.87;;;20.00;99.90;;;;;;5116329;27;20111;-71
2022/07/28 06:52:09;;;;;;;5.87;1.73;;;20.90;99.90;;;;;;5134468;27;20055;-71
2022/07/28 06:54:35;;;;;;;4.37;1.60;;;21.20;97.00;;;;;;5116221;27;20047;-71
2022/07/28 06:57:02;;;;;;;4.80;1.57;;;21.00;93.00;;;;;;5134146;27;20087;-71
2022/07/28 06:59:28;;;;;;;6.23;1.87;;;20.80;93.10;;;;;;5134440;27;20055;-71
2022/07/28 07:01:54;;;;;;;5.20;1.60;;;20.70;92.60;;;;;;5134051;27;20184;-71
2022/07/28 07:04:20;;;;;;;4.37;1.50;;;20.40;90.50;;;;;;5133099;27;20039;-71
2022/07/28 07:06:46;;;;;;;5.03;1.10;;;20.50;91.30;;;;;;5134054;27;20043;-71
2022/07/28 07:09:11;;;;;;;5.70;1.60;;;21.00;90.80;;;;;;5134510;27;20118;-71
2022/07/28 07:11:37;;;;;;;4.10;1.50;;;21.50;88.70;;;;;;5133956;27;20459;-70
2022/07/28 07:14:03;;;;;;;6.57;1.50;;;21.80;83.70;;;;;;5133829;27;20043;-70
2022/07/28 07:16:28;;;;;;;4.73;1.20;;;21.50;77.80;;;;;;5134547;27;20422;-71
2022/07/28 07:18:54;;;;;;;6.73;1.47;;;21.10;74.50;;;;;;5133869;27;20038;-71
2022/07/28 07:21:20;;;;;;;4.70;1.50;;;21.00;77.50;;;;;;5134106;27;20051;-71
2022/07/28 07:23:46;;;;;;;5.33;1.73;;;20.80;78.40;;;;;;5115742;27;20483;-72
2022/07/28 07:26:12;;;;;;;3.37;1.43;;;20.60;78.60;;;;;;5133984;27;20130;-71
2022/07/28 07:28:40;;;;;;;7.03;1.67;;;20.40;79.00;;;;;;5133834;27;20054;-73
2022/07/28 07:31:06;;;;;;;3.83;1.60;;;20.10;78.50;;;;;;5133901;27;20050;-72
2022/07/28 07:33:32;;;;;;;5.27;1.40;;;19.90;80.40;;;;;;5133612;27;20055;-73
2022/07/28 07:35:57;;;;;;;7.57;1.60;;;19.80;81.40;;;;;;5133696;28;20173;-71
2022/07/28 07:38:23;;;;;;;4.60;1.80;;;19.70;82.60;;;;;;5115261;28;20078;-71
2022/07/28 07:40:50;;;;;;;6.63;1.57;;;19.50;83.60;;;;;;5133513;28;20062;-71
2022/07/28 07:43:17;;;;;;;8.03;1.50;;;19.40;84.50;;;;;;5133792;28;20043;-71
2022/07/28 07:45:43;;;;;;;5.07;1.30;;;19.30;87.30;;;;;;5133788;28;20050;-73
2022/07/28 07:48:09;;;;;;;4.40;1.70;;;19.20;88.10;;;;;;5133787;28;20062;-71
2022/07/28 07:50:35;;;;;;;3.47;1.53;;;19.00;88.70;;;;;;5133859;28;20047;-71
2022/07/28 07:53:01;;;;;;;5.83;1.40;;;18.90;90.60;;;;;;5133403;28;20039;-71
2022/07/28 07:55:27;;;;;;;3.47;1.40;;;18.80;90.70;;;;;;5133712;28;20163;-70
2022/07/28 07:57:53;;;;;;;4.90;1.50;;;18.70;91.00;;;;;;5133415;28;20050;-71
2022/07/28 08:00:20;;;;;;;5.03;1.40;;;18.60;91.50;;;;;;5133363;28;20402;-70
2022/07/28 08:02:46;;;;;;;5.87;1.80;;;18.50;92.30;;;;;;5133127;28;20517;-74
2022/07/28 08:05:12;;;;;;;6.00;1.50;;;18.40;92.80;;;;;;5133803;28;20116;-71
2022/07/28 08:07:38;;;;;;;5.03;1.70;;;18.20;93.50;;;;;;5133429;28;20487;-71
2022/07/28 08:10:05;;;;;;;5.30;1.30;;;18.10;94.90;;;;;;5133313;28;20046;-79
2022/07/28 08:12:30;;;;;;;4.87;1.50;;;18.10;96.00;;;;;;5133609;28;20055;-69
2022/07/28 08:14:56;;;;;;;5.13;1.50;;;18.00;96.40;;;;;;5114749;28;20118;-70
2022/07/28 08:17:22;;;;;;;4.57;1.40;;;17.90;96.40;;;;;;5133545;28;20051;-70
2022/07/28 08:19:48;;;;;;;5.00;1.40;;;17.80;97.00;;;;;;5133287;28;20386;-73
2022/07/28 08:22:14;;;;;;;3.60;1.33;;;17.60;98.10;;;;;;5133464;28;20129;-70
2022/07/28 08:24:41;;;;;;;5.93;1.87;;;17.50;99.20;;;;;;5133245;28;20475;-70
2022/07/28 08:27:07;;;;;;;5.30;1.40;;;17.50;99.80;;;;;;5133156;28;20043;-70
2022/07/28 08:29:32;;;;;;;6.43;1.63;;;17.40;99.90;;;;;;5133384;28;20047;-70
2022/07/28 08:32:01;;;;;;;7.13;1.80;;;17.50;99.90;;;;;;5132030;28;20047;-70
2022/07/28 08:34:27;;;;;;;3.13;1.30;;;17.40;99.90;;;;;;5114828;28;20111;-70
2022/07/28 08:36:53;;;;;;;4.30;1.47;;;17.50;99.90;;;;;;5133030;28;20122;-71
2022/07/28 08:39:19;;;;;;;4.73;1.43;;;17.50;99.90;;;;;;5133332;28;20043;-70
2022/07/28 08:41:58;;;;;;;5.43;1.40;;;17.60;99.90;;;;;;5117505;27;20134;-69
2022/07/28 08:44:29;;;;;;;5.43;1.70;;;17.70;99.90;;;;;;5137232;27;20081;-70
2022/07/28 08:46:56;;;;;;;4.57;1.30;;;17.80;99.90;;;;;;5136743;27;20047;-70
2022/07/28 08:49:21;;;;;;;2.73;1.30;;;18.00;99.90;;;;;;5136995;27;20051;-69
2022/07/28 08:51:48;;;;;;;4.57;1.70;;;18.20;99.90;;;;;;5136933;27;20126;-70
2022/07/28 08:54:24;;;;;;;6.17;1.77;;;18.30;98.10;;;;;;5101163;27;20492;-71
2022/07/28 08:56:56;;;;;;;3.93;1.47;;;18.60;97.60;;;;;;5136768;27;20047;-71
2022/07/28 08:59:22;;;;;;;3.93;1.37;;;18.70;97.40;;;;;;5136720;27;20051;-70
2022/07/28 09:01:48;;;;;;;7.10;1.93;;;18.90;96.60;;;;;;5136429;27;20043;-73
2022/07/28 09:04:14;;;;;;;4.83;1.70;;;19.10;97.10;;;;;;5135910;27;20380;-73
2022/07/28 09:06:41;;;;;;;4.93;1.70;;;19.10;95.80;;;;;;5133386;27;20092;-76
2022/07/28 09:09:10;;;;;;;3.53;1.53;;;19.20;95.60;;;;;;5136000;27;20047;-75
2022/07/28 09:11:38;;;;;;;6.23;1.53;;;19.20;95.10;;;;;;5136194;27;20039;-75
2022/07/28 09:14:05;;;;;;;6.50;1.60;;;19.20;94.60;;;;;;5135514;27;20368;-76
2022/07/28 09:16:31;;;;;;;6.40;1.63;;;19.20;95.00;;;;;;5136116;27;20159;-75
2022/07/28 09:18:57;;;;;;;7.10;1.50;;;19.20;94.90;;;;;;5135556;27;20047;-78
2022/07/28 09:21:23;;;;;;;5.87;1.57;;;19.40;94.60;;;;;;5135929;27;20122;-75
2022/07/28 09:23:49;;;;;;;3.67;1.30;;;19.40;93.40;;;;;;5135662;27;20035;-75
2022/07/28 09:26:16;;;;;;;3.50;1.43;;;19.40;90.20;;;;;;5135406;27;20043;-75
2022/07/28 09:29:02;;;;;;;5.30;1.20;;;19.40;89.10;;;;;;5135722;27;20047;-79
2022/07/28 09:31:29;;;;;;;2.93;1.10;;;19.30;89.40;;;;;;5115686;28;20286;-75
2022/07/28 09:33:59;;;;;;;4.50;1.30;;;19.00;88.80;;;;;;5115204;28;20492;-74
2022/07/28 09:36:26;;;;;;;3.97;1.40;;;19.00;90.30;;;;;;5115803;28;20047;-75
2022/07/28 09:38:53;;;;;;;3.13;1.30;;;19.10;90.40;;;;;;5115436;28;20138;-75
2022/07/28 09:41:22;;;;;;;4.53;1.10;;;19.20;89.70;;;;;;5114066;28;20426;-74
2022/07/28 09:43:49;;;;;;;4.93;1.57;;;19.20;87.80;;;;;;5115258;28;20071;-75
2022/07/28 09:46:18;;;;;;;4.33;1.60;;;19.10;88.60;;;;;;5114902;28;20050;-75
2022/07/28 09:48:49;;;;;;;2.50;1.20;;;19.00;88.10;;;;;;5115199;28;20039;-75
2022/07/28 09:51:21;;;;;;;3.67;1.30;;;19.00;90.20;;;;;;5113896;28;20048;-76
2022/07/28 09:53:47;;;;;;;4.70;1.30;;;19.20;90.90;;;;;;5096875;28;20091;-76
2022/07/28 09:56:13;;;;;;;5.57;1.33;;;19.40;90.30;;;;;;5126155;27;20082;-71
2022/07/28 09:58:40;;;;;;;3.60;1.50;;;19.40;87.70;;;;;;5126509;27;20843;-72
2022/07/28 10:01:14;;;;;;;3.27;1.23;;;19.40;87.50;;;;;;5129054;27;20130;-83
2022/07/28 10:03:42;;;;;;;5.50;1.60;;;19.30;86.90;;;;;;5129077;27;20047;-82
2022/07/28 10:06:13;;;;;;;3.93;1.53;;;19.30;88.10;;;;;;5129542;27;20280;-75
2022/07/28 10:13:56;;;;;;;4.77;1.40;;;19.50;88.60;;;;;;5131101;27;1269748;-75
2022/07/28 10:16:51;;;;;;;5.63;1.60;;;19.60;86.40;;;;;;5150187;27;20740;-72
2022/07/28 10:19:17;;;;;;;3.15;1.65;;;19.70;83.90;;;;;;5107780;27;20456;-73
2022/07/28 10:21:43;;;;;;;3.73;1.70;;;19.60;84.40;;;;;;5151785;27;20130;-72
2022/07/28 10:24:21;;;;;;;3.90;1.37;;;19.50;85.20;;;;;;5151577;27;20039;-74
2022/07/28 10:26:48;;;;;;;3.40;1.47;;;19.50;84.00;;;;;;5151790;27;20046;-72
2022/07/28 10:29:19;;;;;;;4.17;2.07;;;19.60;82.90;;;;;;5151480;27;20466;-71
2022/07/28 10:31:59;;;;;;;3.83;1.33;;;19.60;81.90;;;;;;5151592;27;20122;-71
2022/07/28 10:34:42;;;;;;;2.30;1.20;;;19.70;83.00;;;;;;5145648;27;20107;-80
2022/07/28 10:37:16;;;;;;;6.70;1.50;;;19.70;82.20;;;;;;5144919;27;20038;-77
2022/07/28 10:39:46;;;;;;;5.03;1.53;;;19.70;79.80;;;;;;5145502;27;20053;-78
2022/07/28 10:42:13;;;;;;;6.20;1.60;;;19.80;81.20;;;;;;5145561;27;20046;-74
2022/07/28 10:44:44;;;;;;;2.57;1.30;;;19.80;82.30;;;;;;5172291;27;20111;-70
2022/07/28 10:47:11;;;;;;;4.63;1.50;;;19.90;81.80;;;;;;5172032;27;20447;-70
2022/07/28 10:49:38;;;;;;;2.57;1.30;;;20.10;81.40;;;;;;5171996;27;20451;-72
2022/07/28 10:52:06;;;;;;;4.17;1.70;;;20.30;80.60;;;;;;5172265;27;20431;-70
2022/07/28 10:54:50;;;;;;;3.60;1.40;;;20.40;81.30;;;;;;5171897;27;20133;-70
2022/07/28 10:57:17;;;;;;;3.67;1.40;;;20.60;76.40;;;;;;5171653;27;20042;-72
2022/07/28 10:59:47;;;;;;;4.47;1.30;;;20.50;77.40;;;;;;5172004;27;20039;-72
2022/07/28 11:02:44;;;;;;;3.50;1.30;;;20.70;76.50;;;;;;5171795;27;20123;-70
2022/07/28 11:05:29;;;;;;;4.57;1.60;;;20.60;73.20;;;;;;5143242;27;20096;-72
2022/07/28 11:07:59;;;;;;;4.57;1.40;;;20.60;75.50;;;;;;5171931;27;20058;-75
2022/07/28 11:10:27;;;;;;;5.93;1.30;;;20.50;74.90;;;;;;5165189;27;20076;-72
2022/07/28 11:12:56;;;;;;;3.97;1.40;;;20.30;72.50;;;;;;5168524;27;20054;-72
2022/07/28 11:15:31;;;;;;;4.17;1.30;;;20.00;75.30;;;;;;5171362;27;20073;-72
2022/07/28 11:18:03;;;;;;;3.72;1.48;;;19.80;76.00;;;;;;5171723;27;20086;-77
2022/07/28 11:20:56;;;;;;;3.60;1.53;;;19.70;76.90;;;;;;5170831;27;20047;-78
2022/07/28 11:23:56;;;;;;;5.90;1.57;;;19.40;77.80;;;;;;5168132;27;20046;-76
2022/07/28 11:26:26;;;;;;;3.17;1.30;;;19.30;79.10;;;;;;5138688;27;20042;-76
2022/07/28 11:29:09;;;;;;;4.37;1.40;;;19.20;80.30;;;;;;5139015;27;20050;-74
2022/07/28 11:31:47;;;;;;;4.47;1.70;;;19.00;81.10;;;;;;5157140;27;20047;-77
2022/07/28 11:34:20;;;;;;;4.17;1.50;;;19.00;83.20;;;;;;5157062;27;20062;-78
2022/07/28 11:37:11;;;;;;;3.43;1.30;;;18.90;84.70;;;;;;5139168;27;20474;-76
2022/07/28 11:39:41;;;;;;;3.90;1.90;;;18.90;87.80;;;;;;5138666;27;20050;-74
2022/07/28 11:42:28;;;;;;;6.43;1.70;;;18.80;89.30;;;;;;5157303;27;20058;-75
2022/07/28 11:44:54;;;;;;;5.67;2.10;;;18.80;89.90;;;;;;5157290;27;20494;-76
2022/07/28 11:47:28;;;;;;;7.23;1.77;;;18.70;89.60;;;;;;5156858;27;20038;-77
2022/07/28 11:50:15;;;;;;;4.27;1.87;;;18.70;89.90;;;;;;5144486;27;20103;-80
2022/07/28 11:52:55;;;;;;;5.50;1.67;;;18.70;89.80;;;;;;5136603;27;20112;-75
2022/07/28 11:55:21;;;;;;;2.70;1.30;;;18.80;88.50;;;;;;5135986;27;20043;-77
2022/07/28 11:57:47;;;;;;;4.47;1.40;;;18.70;89.80;;;;;;5136206;27;20049;-76
2022/07/28 12:00:24;;;;;;;4.87;1.40;;;18.70;87.50;;;;;;5117871;27;20058;-76
2022/07/28 12:02:50;;;;;;;2.70;1.27;;;18.80;86.90;;;;;;5136219;27;20042;-77
2022/07/28 12:05:16;;;;;;;5.53;1.40;;;18.80;87.70;;;;;;5136007;27;20047;-75
2022/07/28 12:07:45;;;;;;;3.37;1.40;;;18.80;87.90;;;;;;5136038;27;20043;-72
2022/07/28 12:10:34;;;;;;;3.23;1.30;;;18.90;87.80;;;;;;5135980;27;20036;-72
2022/07/28 12:13:06;;;;;;;7.00;1.40;;;19.00;88.50;;;;;;5135947;27;20059;-71
2022/07/28 12:15:33;;;;;;;5.23;1.40;;;19.00;87.70;;;;;;5135882;27;20058;-78
2022/07/28 12:17:59;;;;;;;4.37;1.77;;;19.00;87.50;;;;;;5120511;27;20115;-73
2022/07/28 12:20:33;;;;;;;2.33;1.20;;;19.10;88.20;;;;;;5144115;27;20671;-72
2022/07/28 12:23:05;;;;;;;5.33;1.30;;;19.20;88.30;;;;;;5144897;27;20039;-73
2022/07/28 12:25:42;;;;;;;3.50;1.23;;;19.20;87.30;;;;;;5143646;27;20044;-71
2022/07/28 12:28:19;;;;;;;2.40;1.40;;;19.30;84.70;;;;;;5135354;27;20502;-72
2022/07/28 12:30:45;;;;;;;4.53;1.50;;;19.30;83.30;;;;;;5145145;27;20122;-73
2022/07/28 12:33:23;;;;;;;4.13;1.70;;;19.30;85.60;;;;;;5141993;27;20032;-71
2022/07/28 12:35:51;;;;;;;4.27;1.43;;;19.40;85.20;;;;;;5141928;27;20043;-71
2022/07/28 12:38:21;;;;;;;6.47;1.70;;;19.50;85.60;;;;;;5156150;27;20053;-71
2022/07/28 12:40:46;;;;;;;4.33;1.30;;;19.70;85.90;;;;;;5156142;27;20054;-69
2022/07/28 12:43:18;;;;;;;4.23;1.37;;;19.90;86.00;;;;;;5156041;27;20043;-74
2022/07/28 12:45:47;;;;;;;4.73;1.40;;;20.10;84.80;;;;;;5155937;27;20050;-73
2022/07/28 12:48:14;;;;;;;2.83;1.40;;;20.20;81.30;;;;;;5156042;27;20160;-72
2022/07/28 12:50:40;;;;;;;3.70;1.40;;;20.20;80.40;;;;;;5155767;27;20078;-74
2022/07/28 12:53:09;;;;;;;3.97;1.47;;;20.20;78.80;;;;;;5137557;27;20451;-73
2022/07/28 12:55:36;;;;;;;5.17;1.90;;;20.20;76.60;;;;;;5155443;27;20148;-74
2022/07/28 12:58:03;;;;;;;4.50;1.40;;;20.20;77.50;;;;;;5155747;27;20530;-71
2022/07/28 13:00:32;;;;;;;6.03;1.70;;;20.10;77.50;;;;;;5155338;27;20046;-71
2022/07/28 13:03:00;;;;;;;3.50;1.40;;;20.20;77.80;;;;;;5155925;27;20035;-71
2022/07/28 13:05:31;;;;;;;5.80;1.40;;;20.20;78.20;;;;;;5155657;27;20050;-71
2022/07/28 13:08:05;;;;;;;4.57;1.50;;;20.30;77.20;;;;;;5155542;27;20046;-69